Weather at Newark Liberty International Airport

Public forecast

Using degrees Fahrenheit for public forecast. Weather courtesy of forecast.io.

Current aviation weather report (METAR) for Newark Liberty International Airport

Retrieved 2021/05/06 05:51 UTC (52 minutes ago):

KEWR 060551Z 28008KT 10SM FEW075 12/05 A2986 RMK AO2 SLP112 60000 T01170050 10150 20117 51009

Aviation forecast (TAF) for Newark Liberty International Airport

Retrieved 2021/05/06 06:36 UTC (7 minutes ago):

TAF KEWR 060533Z 0606/0712 32013G18KT P6SM FEW070 FEW250 FM061200 33015G24KT P6SM SCT250 FM061700 33012G20KT P6SM SCT250 FM062200 30009KT P6SM BKN250 FM070200 VRB05KT P6SM BKN250